MMVR/VER METAR and TAF weather

Enter ICAO airport designator
Station Type Date Time Source
MMVR METAR 2019/02/16 17:44 UTC NOAA

MMVR 161744Z 18005KT 5SM SKC 32/23 A2974 RMK SLP047 57019 992 HZY ISOL CI


Station Type Date Time Source
MMVR Decoded METAR 2019/02/16 17:44 UTC NOAA

Veracruz / Las Bajadas / General Heriberto Jara, Mexico (MMVR) 19-09N 096-11W
Feb 16, 2019 - 12:44 PM EST / 2019.02.16 1744 UTC
Wind: from the S (180 degrees) at 6 MPH (5 KT):0
Visibility: 5 mile(s):0
Sky conditions: clear
Temperature: 89 F (32 C)
Heat index: 96.8 F (36.0 C):1
Dew Point: 73 F (23 C)
Relative Humidity: 59%
Pressure (altimeter): 29.74 in. Hg (1007 hPa)
Pressure tendency: 0.06 inches (1.9 hPa) lower than three hours ago
ob: MMVR 161744Z 18005KT 5SM SKC 32/23 A2974 RMK SLP047 57019 992 HZY ISOL CI
cycle: 17

Station Type Date Time Source
MMVR TAF 2019/02/16 18:43 UTC NOAA

TAF MMVR 161636Z 1618/1718 16010KT P6SM SCT015 TX30/1620Z TN20/1712Z
FM162000 05010KT P6SM SKC
FM170900 00000KT 3SM BR BKN005
TEMPO 1711/1715 1/4SM FG VV002
FM171600 00000KT 5SM HZ SCT015


Example: see airport list